createdAt,value
2022-08-27T00:01:33.195Z,98356.35
2022-08-27T00:04:45.908Z,98358.00
2022-08-27T00:07:57.948Z,98359.66
2022-08-27T00:11:10.259Z,98360.88
2022-08-27T00:14:22.629Z,98356.28
2022-08-27T00:17:35.266Z,98347.73
2022-08-27T00:20:48.214Z,98355.34
2022-08-27T00:24:00.477Z,98352.57
2022-08-27T00:27:12.916Z,98355.68
2022-08-27T00:30:28.444Z,98359.88
2022-08-27T00:33:41.056Z,98355.17
2022-08-27T00:36:53.439Z,98350.80
2022-08-27T00:40:05.811Z,98348.71
2022-08-27T00:43:18.296Z,98364.42
2022-08-27T00:46:35.811Z,98342.08
2022-08-27T00:49:52.788Z,98363.41
2022-08-27T00:53:05.713Z,98360.09
2022-08-27T00:56:23.280Z,98362.95
2022-08-27T00:59:43.991Z,98347.32
2022-08-27T01:02:56.137Z,98358.27
2022-08-27T01:06:11.666Z,98352.89
2022-08-27T01:09:26.447Z,98356.80
2022-08-27T01:12:41.592Z,98352.67
2022-08-27T01:15:56.882Z,98348.56
2022-08-27T01:19:11.839Z,98358.69
2022-08-27T01:22:33.440Z,98362.64
2022-08-27T01:25:47.774Z,98356.64
2022-08-27T01:29:00.542Z,98359.33
2022-08-27T01:32:20.274Z,98359.84
2022-08-27T01:35:33.272Z,98355.53
2022-08-27T01:38:47.299Z,98357.16
2022-08-27T01:42:03.155Z,98352.12
2022-08-27T01:45:19.731Z,98353.21
2022-08-27T01:48:31.849Z,98355.96
2022-08-27T01:51:43.922Z,98350.92
2022-08-27T01:55:04.750Z,98353.89
2022-08-27T01:58:18.114Z,98355.64
2022-08-27T02:01:30.330Z,98359.73
2022-08-27T02:04:42.690Z,98360.27
2022-08-27T02:07:54.853Z,98358.91
2022-08-27T02:11:08.379Z,98358.36
2022-08-27T02:14:20.880Z,98351.21
2022-08-27T02:17:33.272Z,98350.70
2022-08-27T02:20:45.910Z,98345.58
2022-08-27T02:23:58.484Z,98350.94
2022-08-27T02:27:10.798Z,98340.41
2022-08-27T02:30:42.734Z,98351.44
2022-08-27T02:33:54.845Z,98348.13
2022-08-27T02:37:07.347Z,98350.60
2022-08-27T02:40:24.064Z,98353.92
2022-08-27T02:43:36.312Z,98355.53
2022-08-27T02:46:50.044Z,98354.03
2022-08-27T02:50:04.012Z,98343.09
2022-08-27T02:53:16.237Z,98346.82
2022-08-27T02:56:28.692Z,98343.16
2022-08-27T02:59:41.275Z,98338.44
2022-08-27T03:02:53.598Z,98341.72
2022-08-27T03:06:06.513Z,98350.20
2022-08-27T03:12:58.609Z,98346.44
2022-08-27T03:19:59.331Z,98343.13
2022-08-27T03:23:11.461Z,98341.66
2022-08-27T03:34:10.729Z,98344.56
2022-08-27T03:37:23.807Z,98344.04
2022-08-27T03:40:36.087Z,98339.84
2022-08-27T03:43:48.507Z,98342.57
2022-08-27T03:47:08.778Z,98347.80
2022-08-27T03:54:20.196Z,98345.55
2022-08-27T03:57:32.316Z,98334.91
2022-08-27T04:00:53.968Z,98341.67
2022-08-27T04:04:06.864Z,98337.31
2022-08-27T04:07:19.150Z,98338.52
2022-08-27T04:10:32.916Z,98344.87
2022-08-27T04:13:45.982Z,98337.06
2022-08-27T04:24:52.932Z,98338.44
2022-08-27T04:31:46.804Z,98341.19
2022-08-27T04:35:16.112Z,98345.98
2022-08-27T04:38:28.204Z,98346.84
2022-08-27T04:49:39.215Z,98334.20
2022-08-27T04:56:52.826Z,98336.80
2022-08-27T05:00:13.531Z,98338.95
2022-08-27T05:03:28.548Z,98344.95
2022-08-27T05:06:54.791Z,98344.62
2022-08-27T05:13:48.133Z,98341.36
2022-08-27T05:17:03.532Z,98343.20
2022-08-27T05:24:19.208Z,98346.10
2022-08-27T05:27:31.255Z,98349.88
2022-08-27T05:30:52.582Z,98344.59
2022-08-27T05:34:16.668Z,98347.38
2022-08-27T05:41:52.625Z,98346.47
2022-08-27T05:48:45.552Z,98336.95
2022-08-27T06:10:27.751Z,98319.70
2022-08-27T06:44:47.175Z,98347.20
2022-08-27T06:47:59.218Z,98344.12
2022-08-27T06:51:17.984Z,98338.66
2022-08-27T06:54:30.045Z,98335.88
2022-08-27T06:57:42.088Z,98335.22
2022-08-27T07:00:54.363Z,98342.23
2022-08-27T07:04:10.416Z,98345.91
2022-08-27T07:07:32.618Z,98340.48
2022-08-27T07:10:37.646Z,98340.48
2022-08-27T07:13:52.640Z,98342.77
2022-08-27T07:17:05.255Z,98337.66
2022-08-27T07:20:21.410Z,98347.98
2022-08-27T07:23:34.076Z,98335.78
2022-08-27T07:26:48.931Z,98340.20
2022-08-27T07:30:01.473Z,98328.30
2022-08-27T07:33:14.564Z,98342.87
2022-08-27T07:36:27.184Z,98345.55
2022-08-27T07:39:39.454Z,98340.03
2022-08-27T07:43:05.748Z,98357.26
2022-08-27T07:46:18.058Z,98352.16
2022-08-27T07:49:32.075Z,98355.72
2022-08-27T07:52:44.634Z,98353.61
2022-08-27T07:55:56.993Z,98359.87
2022-08-27T07:59:09.471Z,98361.91
2022-08-27T08:02:21.630Z,98371.72
2022-08-27T08:05:34.355Z,98361.91
2022-08-27T08:08:48.054Z,98363.87
2022-08-27T08:12:01.855Z,98359.19
2022-08-27T08:15:17.731Z,98362.58
2022-08-27T08:18:28.747Z,98362.09
2022-08-27T08:21:41.765Z,98353.61
2022-08-27T08:24:54.071Z,98366.64
2022-08-27T08:28:06.709Z,98376.84
2022-08-27T08:31:19.974Z,98365.30
2022-08-27T08:34:32.205Z,98373.44
2022-08-27T08:37:44.460Z,98374.67
2022-08-27T08:40:58.523Z,98365.20
2022-08-27T08:44:17.941Z,98376.91
2022-08-27T08:47:37.218Z,98366.70
2022-08-27T08:50:56.566Z,98374.92
2022-08-27T08:54:14.111Z,98381.59
2022-08-27T08:57:32.659Z,98373.20
2022-08-27T09:00:47.067Z,98384.70
2022-08-27T09:04:03.456Z,98377.67
2022-08-27T09:07:20.767Z,98378.40
2022-08-27T09:10:42.600Z,98374.84
2022-08-27T09:14:00.348Z,98371.80
2022-08-27T09:17:13.427Z,98367.59
2022-08-27T09:20:27.860Z,98364.30
2022-08-27T09:23:47.704Z,98372.49
2022-08-27T09:27:00.392Z,98375.05
2022-08-27T09:30:21.052Z,98367.69
2022-08-27T09:33:44.380Z,98365.97
2022-08-27T09:37:03.741Z,98369.66
2022-08-27T09:40:23.537Z,98369.85
2022-08-27T09:43:37.127Z,98323.75
2022-08-27T09:47:01.964Z,98363.92
2022-08-27T09:50:16.596Z,98360.34
2022-08-27T09:53:32.032Z,98363.52
2022-08-27T09:56:49.383Z,98356.55
2022-08-27T10:00:02.610Z,98354.38
2022-08-27T10:03:18.092Z,98352.70
2022-08-27T10:06:37.610Z,98346.69
2022-08-27T10:09:54.600Z,98351.69
2022-08-27T10:13:11.680Z,98334.02
2022-08-27T10:16:53.611Z,98351.10
2022-08-27T10:20:17.217Z,98349.70
2022-08-27T10:23:35.404Z,98353.40
2022-08-27T10:26:53.188Z,98347.05
2022-08-27T10:30:11.082Z,98337.57
2022-08-27T10:33:28.427Z,98344.51
2022-08-27T10:36:49.858Z,98341.05
2022-08-27T10:40:14.685Z,98335.70
2022-08-27T10:43:49.997Z,98336.08
2022-08-27T10:47:20.262Z,98329.96
2022-08-27T10:50:40.420Z,98337.84
2022-08-27T10:53:58.364Z,98335.70
2022-08-27T10:57:35.373Z,98325.22
2022-08-27T11:00:35.777Z,98327.30
2022-08-27T11:03:53.017Z,98320.19
2022-08-27T11:07:09.738Z,98323.66
2022-08-27T11:10:28.507Z,98319.59
2022-08-27T11:13:45.043Z,98323.27
2022-08-27T11:17:03.617Z,98316.11
2022-08-27T11:20:21.211Z,98323.05
2022-08-27T11:23:39.452Z,98333.23
2022-08-27T11:26:53.133Z,98325.30
2022-08-27T11:30:10.569Z,98324.29
2022-08-27T11:33:30.045Z,98323.39
2022-08-27T11:37:19.601Z,98321.39
2022-08-27T11:40:43.645Z,98319.49
2022-08-27T11:43:56.920Z,98312.43
2022-08-27T11:47:20.071Z,98305.30
2022-08-27T11:50:37.143Z,98303.23
2022-08-27T11:54:01.871Z,98310.59
2022-08-27T11:57:22.186Z,98297.52
2022-08-27T12:00:41.472Z,98295.69
2022-08-27T12:03:55.691Z,98303.64
2022-08-27T12:07:14.371Z,98306.64
2022-08-27T12:10:43.828Z,98288.17
2022-08-27T12:14:05.300Z,98292.61
2022-08-27T12:17:26.314Z,98288.13
2022-08-27T12:20:45.467Z,98292.21
2022-08-27T12:24:19.545Z,98294.29
2022-08-27T12:27:40.550Z,98283.73
2022-08-27T12:30:56.599Z,98283.43
2022-08-27T12:34:07.050Z,98291.16
2022-08-27T12:37:19.593Z,98284.56
2022-08-27T12:40:35.007Z,98288.80
2022-08-27T12:43:47.368Z,98273.63
2022-08-27T12:47:04.254Z,98280.69
2022-08-27T12:50:21.160Z,98275.69
2022-08-27T12:53:45.730Z,98261.51
2022-08-27T12:57:06.456Z,98267.53
2022-08-27T13:00:26.267Z,98265.30
2022-08-27T13:03:42.355Z,98266.37
2022-08-27T13:06:55.347Z,98253.45
2022-08-27T13:10:20.148Z,98263.48
2022-08-27T13:13:33.257Z,98265.50
2022-08-27T13:16:54.758Z,98257.88
2022-08-27T13:20:10.020Z,98257.77
2022-08-27T13:23:28.298Z,98242.73
2022-08-27T13:26:44.259Z,98238.09
2022-08-27T13:29:56.718Z,98236.98
2022-08-27T13:33:10.861Z,98244.80
2022-08-27T13:36:35.441Z,98245.72
2022-08-27T13:39:47.537Z,98238.88
2022-08-27T13:43:08.843Z,98235.23
2022-08-27T13:46:23.434Z,98236.45
2022-08-27T13:49:40.190Z,98241.17
2022-08-27T13:53:12.504Z,98233.71
2022-08-27T13:56:38.905Z,98236.73
2022-08-27T13:59:51.148Z,98236.40
2022-08-27T14:03:04.724Z,98225.05
2022-08-27T14:06:17.117Z,98231.65
2022-08-27T14:09:33.267Z,98233.30
2022-08-27T14:12:45.269Z,98231.81
2022-08-27T14:16:00.043Z,98232.30
2022-08-27T14:19:16.661Z,98227.63
2022-08-27T14:22:28.636Z,98237.58
2022-08-27T14:25:40.732Z,98233.95
2022-08-27T14:28:53.410Z,98225.53
2022-08-27T14:32:07.541Z,98230.38
2022-08-27T14:35:24.967Z,98235.41
2022-08-27T14:38:37.992Z,98233.41
2022-08-27T14:41:52.253Z,98234.65
2022-08-27T14:45:04.484Z,98246.13
2022-08-27T14:48:20.395Z,98234.13
2022-08-27T14:51:35.383Z,98232.41
2022-08-27T14:54:48.523Z,98224.27
2022-08-27T14:58:00.954Z,98238.52
2022-08-27T15:01:13.828Z,98247.13
2022-08-27T15:04:26.532Z,98241.20
2022-08-27T15:07:41.650Z,98244.67
2022-08-27T15:10:54.625Z,98242.06
2022-08-27T15:14:08.851Z,98243.05
2022-08-27T15:17:35.217Z,98248.43
2022-08-27T15:20:35.225Z,98249.10
2022-08-27T15:23:47.387Z,98255.48
2022-08-27T15:27:01.717Z,98254.77
2022-08-27T15:30:18.863Z,98248.05
2022-08-27T15:33:31.189Z,98253.85
2022-08-27T15:36:43.945Z,98256.19
2022-08-27T15:39:56.509Z,98254.03
2022-08-27T15:43:12.431Z,98251.58
2022-08-27T15:46:25.755Z,98257.91
2022-08-27T15:49:38.164Z,98260.14
2022-08-27T15:52:51.112Z,98252.78
2022-08-27T15:56:08.134Z,98240.22
2022-08-27T15:59:20.198Z,98253.37
2022-08-27T16:02:32.299Z,98261.27
2022-08-27T16:05:46.896Z,98271.67
2022-08-27T16:08:59.421Z,98273.84
2022-08-27T16:12:12.518Z,98273.00
2022-08-27T16:15:27.115Z,98272.42
2022-08-27T16:18:41.546Z,98266.11
2022-08-27T16:21:54.380Z,98271.82
2022-08-27T16:25:06.515Z,98274.55
2022-08-27T16:28:18.820Z,98253.98
2022-08-27T16:31:32.501Z,98278.60
2022-08-27T16:34:45.280Z,98271.99
2022-08-27T16:37:57.382Z,98287.78
2022-08-27T16:41:10.858Z,98288.84
2022-08-27T16:44:25.305Z,98292.08
2022-08-27T16:47:39.479Z,98291.76
2022-08-27T16:50:51.588Z,98293.63
2022-08-27T16:54:04.110Z,98296.87
2022-08-27T16:57:16.156Z,98297.41
2022-08-27T17:00:29.451Z,98303.04
2022-08-27T17:04:07.685Z,98296.72
2022-08-27T17:07:01.269Z,98303.48
2022-08-27T17:10:15.582Z,98305.86
2022-08-27T17:13:32.688Z,98303.05
2022-08-27T17:16:45.251Z,98309.02
2022-08-27T17:19:57.273Z,98311.68
2022-08-27T17:23:11.265Z,98317.70
2022-08-27T17:26:25.035Z,98330.20
2022-08-27T17:29:37.155Z,98326.81
2022-08-27T17:32:50.936Z,98326.72
2022-08-27T17:36:03.050Z,98335.42
2022-08-27T17:39:17.765Z,98331.99
2022-08-27T17:42:31.085Z,98336.77
2022-08-27T17:45:43.127Z,98338.80
2022-08-27T17:48:55.420Z,98337.92
2022-08-27T17:52:11.579Z,98330.20
2022-08-27T17:55:23.830Z,98329.81
2022-08-27T17:58:36.802Z,98327.84
2022-08-27T18:01:49.186Z,98338.39
2022-08-27T18:05:01.770Z,98324.91
2022-08-27T18:08:13.992Z,98320.99
2022-08-27T18:11:26.971Z,98315.09
2022-08-27T18:14:39.803Z,98311.14
2022-08-27T18:17:53.252Z,98329.13
2022-08-27T18:21:05.679Z,98332.02
2022-08-27T18:24:20.188Z,98332.84
2022-08-27T18:27:35.886Z,98325.17
2022-08-27T18:30:49.628Z,98330.61
2022-08-27T18:34:02.425Z,98334.42
2022-08-27T18:37:14.560Z,98329.45
2022-08-27T18:40:29.409Z,98334.74
2022-08-27T18:43:42.961Z,98348.24
2022-08-27T18:46:55.726Z,98360.17
2022-08-27T18:50:09.366Z,98358.95
2022-08-27T18:57:44.312Z,98377.58
2022-08-27T19:01:01.752Z,98381.34
2022-08-27T19:04:23.237Z,98412.16
2022-08-27T19:07:46.736Z,98421.95
2022-08-27T19:11:01.156Z,98433.10
2022-08-27T19:14:13.872Z,98434.48
2022-08-27T19:17:30.935Z,98426.82
2022-08-27T19:20:43.080Z,98441.03
2022-08-27T19:23:55.401Z,98443.19
2022-08-27T19:27:07.921Z,98425.97
2022-08-27T19:30:22.864Z,98431.31
2022-08-27T19:33:35.069Z,98435.80
2022-08-27T19:36:48.942Z,98434.72
2022-08-27T19:40:01.423Z,98425.85
2022-08-27T19:43:13.837Z,98440.02
2022-08-27T19:46:29.387Z,98441.64
2022-08-27T19:57:01.883Z,98451.09
2022-08-27T20:00:32.357Z,98439.87
2022-08-27T20:03:45.634Z,98448.88
2022-08-27T20:15:16.217Z,98467.17
2022-08-27T20:25:51.326Z,98462.12
2022-08-27T20:29:04.167Z,98462.19
2022-08-27T20:32:16.870Z,98453.61
2022-08-27T20:35:29.495Z,98455.11
2022-08-27T20:38:43.035Z,98446.70
2022-08-27T20:41:55.792Z,98452.31
2022-08-27T20:45:11.943Z,98451.53
2022-08-27T20:48:22.198Z,98451.96
2022-08-27T20:52:01.947Z,98459.77
2022-08-27T20:59:03.531Z,98469.23
2022-08-27T21:02:18.139Z,98471.80
2022-08-27T21:05:30.979Z,98458.13
2022-08-27T21:08:43.404Z,98447.59
2022-08-27T21:11:55.509Z,98456.17
2022-08-27T21:15:10.153Z,98447.31
2022-08-27T21:18:29.224Z,98448.72
2022-08-27T21:21:38.052Z,98436.38
2022-08-27T21:24:50.718Z,98430.73
2022-08-27T21:28:04.046Z,98414.29
2022-08-27T21:31:16.634Z,98394.47
2022-08-27T21:34:30.669Z,98396.07
2022-08-27T21:37:43.841Z,98398.20
2022-08-27T21:40:56.177Z,98395.59
2022-08-27T21:44:08.979Z,98388.72
2022-08-27T21:47:21.123Z,98379.33
2022-08-27T21:50:33.366Z,98365.94
2022-08-27T21:53:46.388Z,98360.18
2022-08-27T21:57:00.657Z,98366.52
2022-08-27T22:00:29.419Z,98359.82
2022-08-27T22:03:46.885Z,98342.13
2022-08-27T22:06:59.108Z,98337.95
2022-08-27T22:10:13.452Z,98345.97
2022-08-27T22:13:26.869Z,98348.66
2022-08-27T22:16:39.382Z,98354.27
2022-08-27T22:19:51.506Z,98356.03
2022-08-27T22:23:04.358Z,98339.84
2022-08-27T22:26:24.001Z,98343.98
2022-08-27T22:29:36.238Z,98350.22
2022-08-27T22:36:29.506Z,98363.05
2022-08-27T22:39:41.775Z,98357.98
2022-08-27T22:43:03.096Z,98364.08
2022-08-27T22:49:57.746Z,98356.34
2022-08-27T22:53:12.161Z,98353.65
2022-08-27T22:56:26.710Z,98364.99
2022-08-27T22:59:39.495Z,98364.61
2022-08-27T23:02:52.793Z,98366.69
2022-08-27T23:06:04.879Z,98370.45
2022-08-27T23:09:17.264Z,98357.15
2022-08-27T23:12:29.449Z,98363.10
2022-08-27T23:15:43.739Z,98355.84
2022-08-27T23:18:56.065Z,98379.66
2022-08-27T23:22:09.646Z,98374.76
2022-08-27T23:25:36.552Z,98374.05
2022-08-27T23:29:02.592Z,98379.44
2022-08-27T23:36:04.830Z,98382.27
2022-08-27T23:39:16.774Z,98384.83
2022-08-27T23:42:28.993Z,98387.56
2022-08-27T23:45:41.467Z,98381.09
2022-08-27T23:48:53.577Z,98383.75
2022-08-27T23:55:45.915Z,98382.58
2022-08-27T23:59:00.041Z,98376.95
